createdAt,value
2023-02-09T00:00:55.086Z,46.80
2023-02-09T00:03:21.656Z,46.80
2023-02-09T00:05:48.156Z,46.60
2023-02-09T00:08:14.651Z,46.80
2023-02-09T00:10:41.111Z,46.80
2023-02-09T00:13:07.593Z,46.70
2023-02-09T00:15:34.197Z,46.80
2023-02-09T00:18:00.689Z,46.90
2023-02-09T00:20:27.161Z,47.00
2023-02-09T00:22:53.632Z,46.80
2023-02-09T00:25:20.110Z,47.10
2023-02-09T00:27:46.615Z,47.10
2023-02-09T00:30:13.093Z,46.90
2023-02-09T00:32:39.587Z,46.80
2023-02-09T00:35:06.058Z,47.20
2023-02-09T00:37:32.562Z,47.40
2023-02-09T00:39:59.024Z,47.10
2023-02-09T00:42:25.504Z,47.10
2023-02-09T00:44:51.974Z,46.60
2023-02-09T00:47:18.479Z,46.90
2023-02-09T00:49:45.128Z,47.10
2023-02-09T00:52:11.617Z,47.00
2023-02-09T00:54:38.088Z,46.90
2023-02-09T00:57:04.587Z,46.70
2023-02-09T00:59:31.065Z,46.70
2023-02-09T01:01:57.540Z,46.70
2023-02-09T01:04:24.056Z,46.70
2023-02-09T01:06:50.581Z,46.60
2023-02-09T01:09:17.056Z,46.80
2023-02-09T01:11:43.528Z,46.60
2023-02-09T01:14:09.989Z,46.90
2023-02-09T01:16:36.504Z,46.70
2023-02-09T01:19:03.047Z,46.60
2023-02-09T01:21:29.528Z,46.60
2023-02-09T01:23:56.003Z,46.60
2023-02-09T01:26:22.477Z,46.60
2023-02-09T01:28:48.950Z,46.50
2023-02-09T01:31:15.585Z,46.70
2023-02-09T01:33:42.105Z,46.50
2023-02-09T01:36:08.577Z,47.20
2023-02-09T01:38:35.043Z,46.90
2023-02-09T01:41:01.545Z,46.70
2023-02-09T01:43:27.998Z,46.50
2023-02-09T01:45:54.513Z,46.40
2023-02-09T01:48:21.021Z,46.40
2023-02-09T01:50:47.614Z,46.40
2023-02-09T01:53:14.159Z,46.40
2023-02-09T01:55:40.641Z,46.60
2023-02-09T01:58:07.149Z,46.60
2023-02-09T02:00:33.630Z,46.40
2023-02-09T02:03:00.111Z,46.30
2023-02-09T02:05:26.581Z,46.30
2023-02-09T02:07:53.080Z,46.50
2023-02-09T02:10:19.542Z,47.60
2023-02-09T02:12:46.019Z,46.40
2023-02-09T02:15:12.523Z,46.20
2023-02-09T02:17:39.007Z,45.90
2023-02-09T02:20:05.479Z,45.90
2023-02-09T02:22:31.939Z,47.00
2023-02-09T02:24:58.432Z,47.20
2023-02-09T02:27:24.917Z,46.90
2023-02-09T02:29:51.394Z,46.90
2023-02-09T02:32:17.890Z,46.20
2023-02-09T02:34:44.376Z,46.20
2023-02-09T02:37:10.849Z,47.10
2023-02-09T02:39:37.341Z,46.20
2023-02-09T02:42:03.842Z,46.90
2023-02-09T02:44:30.346Z,46.70
2023-02-09T02:47:05.060Z,46.80
2023-02-09T02:49:31.532Z,47.10
2023-02-09T02:51:58.011Z,46.60
2023-02-09T02:54:24.476Z,46.40
2023-02-09T02:56:50.934Z,46.80
2023-02-09T02:59:17.412Z,47.10
2023-02-09T03:01:43.962Z,46.60
2023-02-09T03:04:10.453Z,46.70
2023-02-09T03:06:36.935Z,47.10
2023-02-09T03:09:03.630Z,46.20
2023-02-09T03:11:30.134Z,46.50
2023-02-09T03:13:56.600Z,46.90
2023-02-09T03:16:23.199Z,46.70
2023-02-09T03:18:49.705Z,46.50
2023-02-09T03:21:16.174Z,45.70
2023-02-09T03:23:42.641Z,46.40
2023-02-09T03:26:09.112Z,46.30
2023-02-09T03:28:35.594Z,46.60
2023-02-09T03:31:02.223Z,46.30
2023-02-09T03:33:28.780Z,46.40
2023-02-09T03:35:55.245Z,45.70
2023-02-09T03:38:21.734Z,46.40
2023-02-09T03:40:48.243Z,46.20
2023-02-09T03:43:14.733Z,46.20
2023-02-09T03:45:41.229Z,46.20
2023-02-09T03:48:07.702Z,46.40
2023-02-09T03:50:34.155Z,45.70
2023-02-09T03:53:00.653Z,46.80
2023-02-09T03:55:27.124Z,46.10
2023-02-09T03:57:53.605Z,46.20
2023-02-09T04:00:20.102Z,46.50
2023-02-09T04:02:46.648Z,46.40
2023-02-09T04:05:13.168Z,46.30
2023-02-09T04:07:39.935Z,46.10
2023-02-09T04:10:06.399Z,46.80
2023-02-09T04:12:32.883Z,46.40
2023-02-09T04:14:59.352Z,46.40
2023-02-09T04:17:25.837Z,46.30
2023-02-09T04:19:52.327Z,46.30
2023-02-09T04:22:18.847Z,46.40
2023-02-09T04:24:45.338Z,46.20
2023-02-09T04:27:11.833Z,46.40
2023-02-09T04:29:38.316Z,46.30
2023-02-09T04:32:04.934Z,46.00
2023-02-09T04:34:31.444Z,46.20
2023-02-09T04:36:57.903Z,45.40
2023-02-09T04:39:24.382Z,45.30
2023-02-09T04:41:50.852Z,45.90
2023-02-09T04:44:17.325Z,46.20
2023-02-09T04:46:45.674Z,46.20
2023-02-09T04:49:12.290Z,45.30
2023-02-09T04:51:38.752Z,45.30
2023-02-09T04:54:05.232Z,45.10
2023-02-09T04:56:31.715Z,45.20
2023-02-09T04:59:00.440Z,45.10
2023-02-09T05:01:26.959Z,46.00
2023-02-09T05:03:53.583Z,46.10
2023-02-09T05:06:20.111Z,46.00
2023-02-09T05:08:46.585Z,45.30
2023-02-09T05:11:13.065Z,46.00
2023-02-09T05:13:39.589Z,45.90
2023-02-09T05:16:06.122Z,46.20
2023-02-09T05:18:32.629Z,45.90
2023-02-09T05:20:59.111Z,46.10
2023-02-09T05:23:25.593Z,45.70
2023-02-09T05:25:52.076Z,46.10
2023-02-09T05:28:18.626Z,46.20
2023-02-09T05:30:45.440Z,46.00
2023-02-09T05:33:12.132Z,46.10
2023-02-09T05:35:38.613Z,45.70
2023-02-09T05:38:05.064Z,45.80
2023-02-09T05:40:31.529Z,45.50
2023-02-09T05:43:00.429Z,45.40
2023-02-09T05:45:26.924Z,45.60
2023-02-09T05:47:53.416Z,45.80
2023-02-09T05:50:19.908Z,45.70
2023-02-09T05:52:46.395Z,45.80
2023-02-09T05:55:12.864Z,45.80
2023-02-09T05:57:39.324Z,45.90
2023-02-09T06:00:05.820Z,45.80
2023-02-09T06:02:32.407Z,45.50
2023-02-09T06:04:58.939Z,45.50
2023-02-09T06:07:25.413Z,45.60
2023-02-09T06:09:51.900Z,45.70
2023-02-09T06:12:18.393Z,45.50
2023-02-09T06:14:44.889Z,45.70
2023-02-09T06:17:11.346Z,46.00
2023-02-09T06:19:37.805Z,45.80
2023-02-09T06:22:04.276Z,45.90
2023-02-09T06:24:30.763Z,45.70
2023-02-09T06:26:57.258Z,45.50
2023-02-09T06:29:23.725Z,45.50
2023-02-09T06:31:50.331Z,45.50
2023-02-09T06:34:16.926Z,45.70
2023-02-09T06:36:43.406Z,45.30
2023-02-09T06:39:09.928Z,45.70
2023-02-09T06:41:36.420Z,45.70
2023-02-09T06:44:02.887Z,45.50
2023-02-09T06:46:29.455Z,45.50
2023-02-09T06:48:57.184Z,45.50
2023-02-09T06:51:24.600Z,45.60
2023-02-09T06:53:51.148Z,45.40
2023-02-09T06:56:18.514Z,45.50
2023-02-09T06:58:44.993Z,45.60
2023-02-09T07:01:11.505Z,45.20
2023-02-09T07:03:37.992Z,45.50
2023-02-09T07:06:04.477Z,45.30
2023-02-09T07:08:30.953Z,45.70
2023-02-09T07:10:57.424Z,45.40
2023-02-09T07:13:23.893Z,45.30
2023-02-09T07:15:50.403Z,45.30
2023-02-09T07:18:18.519Z,45.50
2023-02-09T07:20:45.269Z,45.60
2023-02-09T07:23:11.928Z,45.30
2023-02-09T07:25:38.401Z,45.30
2023-02-09T07:28:04.934Z,45.30
2023-02-09T07:30:31.499Z,45.50
2023-02-09T07:32:58.001Z,45.40
2023-02-09T07:35:24.502Z,45.40
2023-02-09T07:37:50.972Z,45.40
2023-02-09T07:40:17.539Z,45.00
2023-02-09T07:42:44.053Z,45.50
2023-02-09T07:45:10.538Z,45.10
2023-02-09T07:47:37.004Z,45.10
2023-02-09T07:50:03.472Z,45.40
2023-02-09T07:52:29.956Z,45.20
2023-02-09T07:54:56.421Z,45.30
2023-02-09T07:57:22.903Z,45.40
2023-02-09T07:59:49.382Z,45.30
2023-02-09T08:02:15.875Z,45.30
2023-02-09T08:04:42.371Z,45.40
2023-02-09T08:07:12.570Z,45.30
2023-02-09T08:09:40.426Z,45.40
2023-02-09T08:12:06.974Z,45.40
2023-02-09T08:14:33.466Z,45.30
2023-02-09T08:16:59.940Z,45.40
2023-02-09T08:19:26.382Z,45.00
2023-02-09T08:21:52.875Z,45.20
2023-02-09T08:24:19.331Z,45.30
2023-02-09T08:26:45.845Z,45.40
2023-02-09T08:29:12.329Z,45.40
2023-02-09T08:31:38.880Z,45.30
2023-02-09T08:34:05.825Z,45.30
2023-02-09T08:36:32.337Z,45.20
2023-02-09T08:38:58.823Z,45.30
2023-02-09T08:41:25.295Z,45.30
2023-02-09T08:43:51.792Z,45.30
2023-02-09T08:46:18.393Z,44.80
2023-02-09T08:48:45.000Z,44.60
2023-02-09T08:51:11.461Z,44.90
2023-02-09T08:53:42.646Z,44.90
2023-02-09T08:56:09.123Z,44.70
2023-02-09T08:58:35.551Z,44.60
2023-02-09T09:01:02.061Z,44.70
2023-02-09T09:03:28.611Z,44.80
2023-02-09T09:05:55.120Z,44.80
2023-02-09T09:08:21.601Z,45.00
2023-02-09T09:10:48.072Z,44.60
2023-02-09T09:13:14.574Z,44.90
2023-02-09T09:15:41.058Z,45.10
2023-02-09T09:18:07.523Z,45.00
2023-02-09T09:20:34.008Z,45.20
2023-02-09T09:23:00.483Z,44.70
2023-02-09T09:25:26.966Z,44.60
2023-02-09T09:27:53.438Z,45.00
2023-02-09T09:30:19.989Z,45.10
2023-02-09T09:32:46.526Z,44.60
2023-02-09T09:35:13.023Z,44.80
2023-02-09T09:37:39.554Z,44.80
2023-02-09T09:40:06.013Z,44.60
2023-02-09T09:42:32.486Z,44.60
2023-02-09T09:44:59.209Z,44.60
2023-02-09T09:47:25.779Z,44.70
2023-02-09T09:49:52.271Z,44.80
2023-02-09T09:52:18.773Z,44.70
2023-02-09T09:54:45.404Z,44.60
2023-02-09T09:57:11.898Z,44.50
2023-02-09T09:59:38.377Z,45.00
2023-02-09T10:02:04.886Z,44.90
2023-02-09T10:04:31.382Z,44.80
2023-02-09T10:06:57.925Z,44.90
2023-02-09T10:09:24.419Z,44.90
2023-02-09T10:11:50.913Z,44.90
2023-02-09T10:14:17.409Z,44.80
2023-02-09T10:16:43.919Z,44.50
2023-02-09T10:19:10.424Z,45.00
2023-02-09T10:21:36.890Z,45.20
2023-02-09T10:24:03.318Z,44.60
2023-02-09T10:26:29.813Z,44.50
2023-02-09T10:28:56.308Z,44.60
2023-02-09T10:31:24.776Z,44.80
2023-02-09T10:33:51.329Z,45.10
2023-02-09T10:36:18.717Z,44.60
2023-02-09T10:38:45.192Z,45.00
2023-02-09T10:41:11.694Z,44.50
2023-02-09T10:43:42.750Z,44.90
2023-02-09T10:46:09.296Z,45.00
2023-02-09T10:48:35.784Z,45.00
2023-02-09T10:51:02.241Z,44.90
2023-02-09T10:53:28.710Z,45.00
2023-02-09T10:55:55.210Z,45.30
2023-02-09T10:58:21.680Z,44.80
2023-02-09T11:00:48.192Z,44.80
2023-02-09T11:03:14.662Z,44.80
2023-02-09T11:05:41.169Z,44.80
2023-02-09T11:08:07.648Z,44.70
2023-02-09T11:10:34.153Z,44.60
2023-02-09T11:13:00.615Z,44.90
2023-02-09T11:15:27.089Z,44.70
2023-02-09T11:17:53.562Z,44.60
2023-02-09T11:20:24.847Z,44.50
2023-02-09T11:22:51.340Z,45.00
2023-02-09T11:25:17.826Z,44.90
2023-02-09T11:27:44.301Z,44.90
2023-02-09T11:30:10.776Z,44.80
2023-02-09T11:32:37.249Z,44.80
2023-02-09T11:35:03.734Z,44.80
2023-02-09T11:37:30.284Z,44.80
2023-02-09T11:40:00.843Z,44.90
2023-02-09T11:42:30.780Z,44.90
2023-02-09T11:44:57.249Z,44.50
2023-02-09T11:47:23.707Z,44.60
2023-02-09T11:49:54.753Z,44.50
2023-02-09T11:52:21.241Z,44.50
2023-02-09T11:54:47.745Z,44.60
2023-02-09T11:57:14.220Z,44.60
2023-02-09T11:59:40.688Z,44.50
2023-02-09T12:02:07.113Z,44.60
2023-02-09T12:04:33.581Z,44.50
2023-02-09T12:07:00.123Z,44.60
2023-02-09T12:09:26.610Z,44.40
2023-02-09T12:11:53.150Z,44.30
2023-02-09T12:14:19.627Z,44.50
2023-02-09T12:16:46.111Z,44.60
2023-02-09T12:19:12.581Z,44.70
2023-02-09T12:21:39.041Z,44.60
2023-02-09T12:24:05.529Z,44.50
2023-02-09T12:26:32.006Z,44.80
2023-02-09T12:28:58.481Z,44.50
2023-02-09T12:31:25.038Z,44.50
2023-02-09T12:33:51.600Z,44.50
2023-02-09T12:36:18.071Z,44.30
2023-02-09T12:38:49.316Z,44.30
2023-02-09T12:41:16.265Z,44.20
2023-02-09T12:43:42.812Z,44.70
2023-02-09T12:46:09.368Z,44.10
2023-02-09T12:48:35.869Z,44.20
2023-02-09T12:51:02.356Z,44.30
2023-02-09T12:53:28.840Z,44.50
2023-02-09T12:55:55.326Z,44.40
2023-02-09T12:58:21.821Z,44.10
2023-02-09T13:00:48.334Z,44.20
2023-02-09T13:03:14.838Z,44.50
2023-02-09T13:05:41.319Z,44.30
2023-02-09T13:08:07.834Z,43.80
2023-02-09T13:10:34.308Z,44.20
2023-02-09T13:13:00.777Z,44.40
2023-02-09T13:15:27.267Z,44.50
2023-02-09T13:17:53.744Z,44.00
2023-02-09T13:20:20.219Z,44.20
2023-02-09T13:22:48.858Z,44.20
2023-02-09T13:25:15.346Z,44.00
2023-02-09T13:27:41.812Z,43.90
2023-02-09T13:30:08.285Z,43.90
2023-02-09T13:32:34.755Z,44.00
2023-02-09T13:35:01.372Z,44.00
2023-02-09T13:37:27.881Z,44.10
2023-02-09T13:39:54.354Z,43.90
2023-02-09T13:42:20.849Z,43.90
2023-02-09T13:44:47.318Z,44.00
2023-02-09T13:47:13.787Z,43.80
2023-02-09T13:49:40.266Z,43.80
2023-02-09T13:52:06.909Z,44.10
2023-02-09T13:54:33.378Z,43.80
2023-02-09T13:57:00.075Z,44.20
2023-02-09T13:59:30.868Z,43.80
2023-02-09T14:01:57.354Z,44.00
2023-02-09T14:04:23.843Z,44.00
2023-02-09T14:06:50.327Z,43.80
2023-02-09T14:09:16.831Z,44.10
2023-02-09T14:11:43.397Z,43.90
2023-02-09T14:14:09.897Z,43.60
2023-02-09T14:16:44.757Z,43.80
2023-02-09T14:19:19.007Z,43.90
2023-02-09T14:21:45.489Z,43.80
2023-02-09T14:24:12.721Z,43.80
2023-02-09T14:26:39.267Z,44.00
2023-02-09T14:29:05.755Z,43.80
2023-02-09T14:31:32.232Z,43.40
2023-02-09T14:33:58.724Z,44.00
2023-02-09T14:36:25.209Z,44.00
2023-02-09T14:38:51.725Z,43.80
2023-02-09T14:41:18.198Z,43.60
2023-02-09T14:43:44.646Z,43.40
2023-02-09T14:46:12.933Z,43.80
2023-02-09T14:48:39.422Z,43.60
2023-02-09T14:51:05.923Z,43.70
2023-02-09T14:53:32.553Z,43.60
2023-02-09T14:56:00.921Z,43.50
2023-02-09T14:58:27.424Z,43.80
2023-02-09T15:00:53.933Z,43.70
2023-02-09T15:03:20.415Z,43.50
2023-02-09T15:05:47.091Z,43.60
2023-02-09T15:08:13.661Z,43.60
2023-02-09T15:10:40.146Z,44.10
2023-02-09T15:13:06.623Z,43.60
2023-02-09T15:15:33.179Z,43.50
2023-02-09T15:17:59.704Z,43.70
2023-02-09T15:20:26.225Z,43.70
2023-02-09T15:22:52.731Z,43.60
2023-02-09T15:25:19.262Z,43.60
2023-02-09T15:27:51.415Z,43.40
2023-02-09T15:30:18.036Z,43.40
2023-02-09T15:32:44.691Z,43.30
2023-02-09T15:35:11.190Z,43.70
2023-02-09T15:37:37.653Z,43.50
2023-02-09T15:40:04.213Z,43.80
2023-02-09T15:42:30.687Z,43.50
2023-02-09T15:44:57.156Z,44.10
2023-02-09T15:47:23.629Z,44.10
2023-02-09T15:49:50.108Z,44.10
2023-02-09T15:52:16.724Z,44.00
2023-02-09T15:54:43.194Z,43.90
2023-02-09T15:57:09.725Z,44.00
2023-02-09T15:59:36.214Z,44.00
2023-02-09T16:02:02.763Z,44.20
2023-02-09T16:04:29.239Z,43.90
2023-02-09T16:06:55.727Z,43.90
2023-02-09T16:09:22.205Z,43.80
2023-02-09T16:11:48.749Z,43.90
2023-02-09T16:14:15.273Z,43.60
2023-02-09T16:16:41.843Z,43.90
2023-02-09T16:19:08.373Z,44.10
2023-02-09T16:21:34.862Z,44.00
2023-02-09T16:24:01.340Z,43.90
2023-02-09T16:26:27.831Z,43.60
2023-02-09T16:28:54.320Z,43.80
2023-02-09T16:31:20.858Z,43.80
2023-02-09T16:33:48.952Z,43.90
2023-02-09T16:36:15.420Z,43.70
2023-02-09T16:38:41.876Z,43.90
2023-02-09T16:41:08.366Z,44.10
2023-02-09T16:43:34.836Z,44.10
2023-02-09T16:46:03.982Z,44.00
2023-02-09T16:48:30.764Z,44.30
2023-02-09T16:50:57.232Z,44.00
2023-02-09T16:53:23.725Z,43.80
2023-02-09T16:55:50.626Z,43.70
2023-02-09T16:58:17.255Z,43.80
2023-02-09T17:00:43.796Z,44.00
2023-02-09T17:03:10.278Z,44.30
2023-02-09T17:05:36.747Z,44.20
2023-02-09T17:08:03.250Z,43.80
2023-02-09T17:10:29.759Z,44.00
2023-02-09T17:12:56.218Z,44.10
2023-02-09T17:15:31.723Z,43.90
2023-02-09T17:18:00.825Z,44.30
2023-02-09T17:20:28.296Z,44.20
2023-02-09T17:22:55.002Z,44.00
2023-02-09T17:25:21.565Z,44.40
2023-02-09T17:27:48.272Z,44.50
2023-02-09T17:30:14.781Z,44.10
2023-02-09T17:32:41.260Z,44.50
2023-02-09T17:35:07.744Z,44.10
2023-02-09T17:37:34.246Z,44.00
2023-02-09T17:40:00.722Z,44.40
2023-02-09T17:42:27.198Z,44.50
2023-02-09T17:44:53.758Z,44.50
2023-02-09T17:47:20.305Z,44.10
2023-02-09T17:49:46.824Z,44.80
2023-02-09T17:52:13.351Z,44.60
2023-02-09T17:54:39.836Z,44.60
2023-02-09T17:57:06.338Z,44.60
2023-02-09T17:59:32.802Z,45.00
2023-02-09T18:01:59.278Z,44.80
2023-02-09T18:04:25.762Z,44.90
2023-02-09T18:06:52.241Z,44.80
2023-02-09T18:09:18.698Z,45.00
2023-02-09T18:11:46.094Z,45.00
2023-02-09T18:14:12.568Z,45.00
2023-02-09T18:16:39.139Z,45.20
2023-02-09T18:19:07.054Z,45.20
2023-02-09T18:21:33.542Z,45.10
2023-02-09T18:24:00.034Z,45.10
2023-02-09T18:26:26.504Z,44.90
2023-02-09T18:28:52.962Z,45.00
2023-02-09T18:31:19.515Z,45.00
2023-02-09T18:33:46.092Z,45.00
2023-02-09T18:36:12.585Z,44.90
2023-02-09T18:38:39.059Z,45.00
2023-02-09T18:41:05.529Z,45.00
2023-02-09T18:43:32.050Z,44.80
2023-02-09T18:45:58.558Z,45.10
2023-02-09T18:48:25.079Z,45.20
2023-02-09T18:50:51.563Z,45.50
2023-02-09T18:53:18.026Z,45.20
2023-02-09T18:55:44.749Z,45.00
2023-02-09T18:58:11.441Z,45.00
2023-02-09T19:00:37.917Z,45.10
2023-02-09T19:03:04.461Z,45.20
2023-02-09T19:05:30.974Z,45.30
2023-02-09T19:07:57.453Z,45.40
2023-02-09T19:10:23.932Z,45.30
2023-02-09T19:12:50.437Z,45.50
2023-02-09T19:15:16.913Z,45.60
2023-02-09T19:17:43.398Z,45.70
2023-02-09T19:20:09.888Z,45.60
2023-02-09T19:22:36.352Z,45.40
2023-02-09T19:25:02.849Z,45.40
2023-02-09T19:27:29.326Z,45.40
2023-02-09T19:29:55.778Z,45.70
2023-02-09T19:32:22.244Z,45.30
2023-02-09T19:34:48.719Z,45.60
2023-02-09T19:37:15.209Z,45.50
2023-02-09T19:39:41.682Z,45.30
2023-02-09T19:42:08.175Z,45.60
2023-02-09T19:44:34.650Z,45.90
2023-02-09T19:47:01.140Z,45.90
2023-02-09T19:49:27.648Z,45.90
2023-02-09T19:51:54.126Z,45.80
2023-02-09T19:54:20.596Z,45.50
2023-02-09T19:56:47.089Z,45.80
2023-02-09T19:59:13.590Z,45.40
2023-02-09T20:01:40.133Z,45.70
2023-02-09T20:04:06.654Z,46.00
2023-02-09T20:06:33.154Z,46.20
2023-02-09T20:08:59.656Z,45.90
2023-02-09T20:11:26.152Z,46.20
2023-02-09T20:13:52.654Z,46.10
2023-02-09T20:16:19.508Z,46.10
2023-02-09T20:18:46.019Z,45.90
2023-02-09T20:21:12.540Z,45.80
2023-02-09T20:23:39.028Z,46.00
2023-02-09T20:26:05.550Z,46.00
2023-02-09T20:28:32.066Z,46.00
2023-02-09T20:30:58.564Z,45.80
2023-02-09T20:33:25.046Z,45.60
2023-02-09T20:35:51.519Z,45.70
2023-02-09T20:38:19.193Z,45.90
2023-02-09T20:40:45.948Z,46.40
2023-02-09T20:43:12.591Z,46.60
2023-02-09T20:45:39.072Z,46.80
2023-02-09T20:48:05.554Z,46.80
2023-02-09T20:50:32.051Z,46.70
2023-02-09T20:52:58.538Z,46.60
2023-02-09T20:55:25.005Z,46.70
2023-02-09T20:57:51.583Z,46.90
2023-02-09T21:00:18.083Z,47.30
2023-02-09T21:02:49.272Z,47.30
2023-02-09T21:05:15.802Z,47.10
2023-02-09T21:07:42.297Z,47.30
2023-02-09T21:10:08.794Z,47.00
2023-02-09T21:12:35.276Z,47.10
2023-02-09T21:15:01.748Z,47.30
2023-02-09T21:17:28.239Z,47.10
2023-02-09T21:19:54.731Z,47.00
2023-02-09T21:22:21.214Z,47.10
2023-02-09T21:24:47.673Z,47.30
2023-02-09T21:27:14.195Z,47.40
2023-02-09T21:29:40.682Z,47.30
2023-02-09T21:32:07.229Z,47.10
2023-02-09T21:34:33.780Z,47.80
2023-02-09T21:37:00.279Z,47.60
2023-02-09T21:39:26.768Z,47.50
2023-02-09T21:41:53.251Z,47.60
2023-02-09T21:44:19.724Z,47.80
2023-02-09T21:46:46.219Z,47.90
2023-02-09T21:49:12.697Z,48.10
2023-02-09T21:51:39.301Z,47.80
2023-02-09T21:54:05.775Z,47.90
2023-02-09T21:56:32.264Z,48.00
2023-02-09T21:58:58.757Z,48.00
2023-02-09T22:01:25.271Z,48.00
2023-02-09T22:03:51.782Z,48.30
2023-02-09T22:06:18.276Z,48.10
2023-02-09T22:08:44.745Z,48.10
2023-02-09T22:11:11.218Z,48.00
2023-02-09T22:13:37.696Z,48.20
2023-02-09T22:16:04.168Z,48.60
2023-02-09T22:18:30.684Z,48.80
2023-02-09T22:20:57.166Z,48.40
2023-02-09T22:23:23.642Z,48.50
2023-02-09T22:25:50.110Z,48.60
2023-02-09T22:28:16.600Z,48.50
2023-02-09T22:30:43.273Z,48.90
2023-02-09T22:33:09.795Z,49.00
2023-02-09T22:35:36.273Z,49.80
2023-02-09T22:38:02.775Z,49.50
2023-02-09T22:40:29.259Z,49.00
2023-02-09T22:42:55.748Z,49.00
2023-02-09T22:45:22.225Z,49.00
2023-02-09T22:47:48.685Z,49.20
2023-02-09T22:50:15.147Z,49.10
2023-02-09T22:52:41.616Z,49.00
2023-02-09T22:55:08.077Z,49.20
2023-02-09T22:57:34.570Z,49.50
2023-02-09T23:00:01.038Z,49.30
2023-02-09T23:02:27.520Z,49.30
2023-02-09T23:04:54.003Z,49.50
2023-02-09T23:07:20.506Z,49.50
2023-02-09T23:09:47.007Z,49.40
2023-02-09T23:12:13.525Z,49.30
2023-02-09T23:14:40.026Z,49.60
2023-02-09T23:17:06.539Z,50.20
2023-02-09T23:19:33.024Z,50.10
2023-02-09T23:21:59.514Z,50.40
2023-02-09T23:24:26.083Z,50.40
2023-02-09T23:26:52.573Z,50.10
2023-02-09T23:29:19.063Z,50.00
2023-02-09T23:31:45.612Z,50.10
2023-02-09T23:34:12.101Z,50.20
2023-02-09T23:36:38.562Z,50.20
2023-02-09T23:39:05.088Z,50.50
2023-02-09T23:41:31.581Z,50.60
2023-02-09T23:43:58.182Z,50.90
2023-02-09T23:46:25.432Z,51.10
2023-02-09T23:48:53.191Z,50.70
2023-02-09T23:51:19.666Z,51.20
2023-02-09T23:53:46.158Z,51.10
2023-02-09T23:56:12.635Z,51.20
2023-02-09T23:58:39.169Z,51.60
